Abbeville, LA

9:48 AM CST on January 23, 2017 (GMT -0600)
Eaton Park | | Change Station
Active Advisory: Flood Warning, Low Water Advisory

Elev 23 ft 29.96 °N, 92.14 °W | Updated 21 seconds ago

Clear
Clear
59.4 °F
Feels Like 59.4 °F
N
0.4
Wind Variable Wind from NNW
Gusts 2.5 mph

Today
High -- | Low -- °F
--% Chance of Precip.
Yesterday
High -- | Low -- °F
Precip. -- in
Pressure 29.94 in
Visibility 10.0 miles
Clouds Clear
Dew Point 38 °F
Humidity 45%
Rainfall 0.00 in
Snow Depth Not available.
7:02 AM 5:38 PM
Waning Crescent, 18% visible
METAR KIYA 231534Z AUTO 32012G19KT 10SM CLR 13/04 A2994 RMK AO2
Pressure 29.94 in
Visibility 10.0 miles
Clouds Clear
Dew Point 38 °F
Humidity 45%
Rainfall 0.00 in
Snow Depth Not available.
7:02 AM 5:38 PM
Waning Crescent, 18% visible
METAR KIYA 231534Z AUTO 32012G19KT 10SM CLR 13/04 A2994 RMK AO2

Get Your Daily Forecast Email!

Thanks for signing up!

Be on the lookout for a verification email in your inbox.

You'll start receiving the daily forecast at 8 AM.

×

10-Day Weather Forecast

Almanac

Astronomy

Jan. 23, 2017 Rise Set
Actual Time
Civil Twilight
Nautical Twilight
Astronomical Twilight
Moon
Length of Visible Light
Length of Day
Tomorrow will be .
, % of the Moon is Illuminated

Today's Extremes

State Highs State Lows

Community

WunderPhotos

Upload Photos

1,962,540 photos uploaded!

WunderBlog® & News

Nearby

Air Quality

  Air Quality AQ Index Pollutant
Not available.

Snow Depth

Station Depth Elevation

Earthquake Activity

City Distance Mag. Time & Date
Minimum magnitude displayed is 2.5.

Coastal Water Temperatures

Place Temperature

Stations

Nearby Weather Stations

Station Location Temp. Windchill Dew Point Humidity Wind Precip. Elev Updated Type
                   

Watches & Warnings

Flood Warning
Issued: 7:20 PM CST Jan. 22, 2017 – National Weather Service

... Flood Warning extended until late Wednesday night... the Flood
Warning continues for
the Mermentau river near Mermentau.
* Until late Wednesday night... or until the warning is cancelled.
* At 6:15 PM Sunday the stage was 4.4 feet.
* Minor flooding is occurring and minor flooding is forecast.
* Flood stage is 4.0 feet.
* Forecast... the river will continue to fall to below flood stage by
Wednesday early afternoon.
* Impact... at stages near 4.0 feet... minor lowland flooding near the
river will occur.


Lat... Lon 3025 9266 3004 9276 3004 9260 3019 9254 3024 9255




Low Water Advisory
Issued: 9:45 AM CST Jan. 23, 2017 – National Weather Service

... Low water advisory now in effect until 6 PM CST this evening...

Precautionary/preparedness actions...

A low water advisory means water levels are expected to be
significantly below average. Mariners should use extreme caution
and transit at the slowest safe navigable speed to minimize
impact.

* Water levels... -1.0 to -2.0 MLLW through the day.